Time;durP1;ratioP1;P1;durP2;ratioP2;P2;SDS_P1;SDS_P2;PMS_P1;PMS_P2;Temp;Humidity;BMP_temperature;BMP_pressure;BME280_temperature;BME280_humidity;BME280_pressure;Samples;Min_cycle;Max_cycle;Signal;HPM_P1;HPM_P2
2021/08/22 00:00:05;;;;;;;5.95;3.70;;;;;;;19.13;58.95;99410.13;5069578;28;20046;-78
2021/08/22 00:02:37;;;;;;;4.07;3.38;;;;;;;19.11;59.04;99407.59;5070806;28;20485;-75
2021/08/22 00:05:04;;;;;;;8.93;3.88;;;;;;;19.08;59.35;99399.00;5070244;28;20113;-77
2021/08/22 00:07:30;;;;;;;5.10;3.67;;;;;;;19.01;59.34;99393.16;5071075;28;20044;-77
2021/08/22 00:09:56;;;;;;;13.23;3.50;;;;;;;19.04;59.54;99403.53;5070317;28;20131;-77
2021/08/22 00:12:22;;;;;;;6.25;3.70;;;;;;;19.03;59.71;99401.84;5069904;28;20111;-78
2021/08/22 00:14:48;;;;;;;7.07;3.65;;;;;;;19.04;59.94;99402.72;5071308;28;20481;-78
2021/08/22 00:17:15;;;;;;;5.55;3.42;;;;;;;19.02;59.93;99405.41;5071217;28;20044;-77
2021/08/22 00:19:41;;;;;;;6.68;3.80;;;;;;;18.77;59.81;99363.59;5070244;28;20082;-77
2021/08/22 00:22:07;;;;;;;8.10;3.70;;;;;;;19.00;60.16;99406.41;5069951;28;20531;-76
2021/08/22 00:24:32;;;;;;;6.53;3.90;;;;;;;18.86;60.00;99384.22;5070571;28;20041;-77
2021/08/22 00:26:59;;;;;;;6.53;3.90;;;;;;;19.01;60.07;99406.34;5071226;28;20072;-77
2021/08/22 00:29:25;;;;;;;9.60;3.75;;;;;;;18.97;60.23;99399.53;5071349;28;20882;-77
2021/08/22 00:31:50;;;;;;;6.80;3.80;;;;;;;18.96;60.37;99406.56;5056446;28;20115;-77
2021/08/22 00:34:16;;;;;;;6.65;3.70;;;;;;;18.96;60.64;99411.00;5075040;28;20036;-77
2021/08/22 00:36:42;;;;;;;9.40;3.80;;;;;;;18.72;60.46;99371.72;5074529;28;20048;-80
2021/08/22 00:39:08;;;;;;;6.15;3.67;;;;;;;18.91;60.71;99413.81;5075422;28;20047;-78
2021/08/22 00:41:38;;;;;;;5.40;3.60;;;;;;;18.89;60.83;99417.47;5056988;28;20041;-76
2021/08/22 00:44:05;;;;;;;6.05;3.60;;;;;;;18.84;61.05;99415.06;5073377;28;20045;-79
2021/08/22 00:46:32;;;;;;;7.20;4.05;;;;;;;18.70;61.43;99404.34;5056703;28;20472;-78
2021/08/22 00:48:58;;;;;;;5.60;3.75;;;;;;;18.64;61.21;99413.41;5074424;28;20047;-79
2021/08/22 00:51:24;;;;;;;6.38;3.53;;;;;;;18.61;61.51;99419.69;5074340;28;20040;-76
2021/08/22 00:53:49;;;;;;;8.18;4.15;;;;;;;18.45;62.06;99402.88;5074257;28;20437;-78
2021/08/22 00:56:16;;;;;;;6.80;4.18;;;;;;;18.36;61.78;99396.28;5073113;28;20036;-76
2021/08/22 00:58:43;;;;;;;5.82;3.75;;;;;;;18.44;62.24;99417.84;5074194;28;20051;-79
2021/08/22 01:01:17;;;;;;;5.65;3.33;;;;;;;18.39;62.19;99413.72;5073038;28;20405;-78
2021/08/22 01:03:50;;;;;;;5.60;3.58;;;;;;;18.35;62.20;99413.88;5073340;28;20040;-78
2021/08/22 01:06:27;;;;;;;3.92;3.47;;;;;;;18.36;62.32;99417.34;5057182;28;20529;-77
2021/08/22 01:09:01;;;;;;;5.63;3.33;;;;;;;18.31;62.50;99412.31;5059977;28;20340;-77
2021/08/22 01:11:31;;;;;;;7.07;4.18;;;;;;;18.28;62.69;99422.97;5062665;28;20051;-76
2021/08/22 01:14:05;;;;;;;6.35;3.75;;;;;;;18.16;62.76;99411.22;5076908;28;20043;-76
2021/08/22 01:16:39;;;;;;;5.43;3.28;;;;;;;18.10;62.78;99418.56;5058034;28;20036;-76
2021/08/22 01:19:15;;;;;;;7.97;4.43;;;;;;;17.97;62.99;99415.63;5073572;28;20040;-76
2021/08/22 01:21:42;;;;;;;7.28;4.00;;;;;;;17.93;63.19;99422.81;5072488;28;20563;-75
2021/08/22 01:24:08;;;;;;;6.22;3.92;;;;;;;17.73;63.47;99402.63;5055942;28;20040;-76
2021/08/22 01:26:38;;;;;;;7.57;4.13;;;;;;;17.70;63.51;99411.53;5072149;28;20397;-77
2021/08/22 01:29:06;;;;;;;6.20;4.30;;;;;;;17.71;63.79;99431.66;5056416;28;20559;-78
2021/08/22 01:31:38;;;;;;;7.07;4.20;;;;;;;17.59;63.93;99419.91;5059295;28;20049;-78
2021/08/22 01:34:05;;;;;;;7.65;4.00;;;;;;;17.39;64.25;99396.25;5057336;28;20496;-76
2021/08/22 01:36:31;;;;;;;8.13;4.47;;;;;;;17.49;64.38;99420.38;5042526;28;20090;-79
2021/08/22 01:38:57;;;;;;;6.93;4.22;;;;;;;17.44;64.73;99423.19;5057586;28;20048;-74
2021/08/22 01:41:24;;;;;;;7.90;4.30;;;;;;;17.42;65.06;99431.16;5056027;28;20037;-79
2021/08/22 01:43:56;;;;;;;8.30;4.55;;;;;;;17.23;64.97;99401.31;5059424;28;20405;-76
2021/08/22 01:46:28;;;;;;;9.30;4.60;;;;;;;17.24;64.93;99416.16;5083732;28;20090;-77
2021/08/22 01:48:54;;;;;;;8.23;4.07;;;;;;;17.26;65.20;99432.72;5073533;28;20518;-76
2021/08/22 01:51:20;;;;;;;10.65;5.20;;;;;;;17.17;65.38;99426.94;5073854;28;20123;-77
2021/08/22 01:53:46;;;;;;;9.57;4.25;;;;;;;17.11;65.61;99427.19;5072845;28;20076;-76
2021/08/22 01:56:12;;;;;;;9.82;4.60;;;;;;;17.03;65.80;99418.78;5073967;28;20037;-77
2021/08/22 01:58:38;;;;;;;7.65;4.80;;;;;;;16.99;65.79;99412.78;5073583;28;20047;-77
2021/08/22 02:01:04;;;;;;;7.43;5.07;;;;;;;17.01;65.80;99439.00;5072056;28;20071;-76
2021/08/22 02:03:41;;;;;;;9.95;5.20;;;;;;;16.85;66.09;99418.59;5072450;28;20124;-76
2021/08/22 02:06:47;;;;;;;8.23;4.72;;;;;;;16.84;66.00;99439.66;5073639;28;20044;-77
2021/08/22 02:09:16;;;;;;;10.38;5.25;;;;;;;16.68;66.47;99423.66;5061103;28;20110;-79
2021/08/22 02:11:48;;;;;;;11.27;6.00;;;;;;;16.69;66.57;99441.13;5073333;28;20518;-76
2021/08/22 02:14:15;;;;;;;10.13;6.05;;;;;;;16.57;66.58;99431.97;5072765;28;20044;-77
2021/08/22 02:16:47;;;;;;;14.85;5.72;;;;;;;16.49;66.64;99429.63;5039092;28;20044;-79
2021/08/22 02:19:14;;;;;;;9.40;5.53;;;;;;;16.51;66.82;99443.56;5071611;28;20036;-76
2021/08/22 02:21:40;;;;;;;13.77;5.80;;;;;;;16.30;66.99;99416.41;5071387;28;20055;-79
2021/08/22 02:24:07;;;;;;;9.60;5.97;;;;;;;16.35;67.30;99432.81;5072894;28;20040;-76
2021/08/22 02:26:33;;;;;;;10.20;6.45;;;;;;;16.37;67.35;99446.72;5072711;28;20553;-76
2021/08/22 02:28:59;;;;;;;10.73;5.88;;;;;;;16.32;67.47;99446.06;5074167;28;20047;-78
2021/08/22 02:31:29;;;;;;;13.55;6.28;;;;;;;16.31;67.90;99446.13;5056058;28;20086;-80
2021/08/22 02:33:57;;;;;;;16.65;6.38;;;;;;;16.19;67.47;99427.31;5072464;28;20506;-79
2021/08/22 02:36:23;;;;;;;12.52;6.78;;;;;;;16.23;68.13;99439.38;5073773;28;20159;-77
2021/08/22 02:38:49;;;;;;;13.48;6.72;;;;;;;16.20;68.00;99441.28;5073207;28;20112;-77
2021/08/22 02:41:15;;;;;;;11.80;6.05;;;;;;;16.08;68.29;99424.22;5075124;28;20614;-76
2021/08/22 02:43:41;;;;;;;12.90;6.88;;;;;;;16.11;68.51;99445.94;5073251;28;20067;-76
2021/08/22 02:46:07;;;;;;;19.27;6.93;;;;;;;16.02;68.27;99430.56;5073275;28;20043;-77
2021/08/22 02:48:33;;;;;;;15.48;7.18;;;;;;;15.98;68.33;99425.50;5073785;28;20127;-77
2021/08/22 02:51:00;;;;;;;15.15;7.10;;;;;;;15.92;68.51;99424.81;5070948;28;20095;-77
2021/08/22 02:53:26;;;;;;;11.95;7.20;;;;;;;15.99;68.59;99442.94;5053712;28;20040;-76
2021/08/22 02:55:52;;;;;;;17.02;7.70;;;;;;;15.93;68.72;99441.38;5072154;28;20097;-76
2021/08/22 02:58:19;;;;;;;15.05;8.30;;;;;;;15.99;68.64;99440.31;5072701;28;20132;-78
2021/08/22 03:00:44;;;;;;;16.55;8.07;;;;;;;15.94;68.86;99441.34;5072436;28;20048;-77
2021/08/22 03:03:10;;;;;;;16.02;7.97;;;;;;;15.90;69.31;99447.59;5072774;28;20044;-77
2021/08/22 03:05:36;;;;;;;19.23;7.82;;;;;;;15.93;69.05;99460.63;5054962;28;20060;-79
2021/08/22 03:08:02;;;;;;;18.85;6.95;;;;;;;15.92;69.33;99444.91;5073219;28;20500;-77
2021/08/22 03:10:28;;;;;;;18.40;7.53;;;;;;;15.90;69.59;99441.50;5073272;28;20047;-76
2021/08/22 03:12:55;;;;;;;18.65;7.25;;;;;;;15.97;69.50;99450.84;5072005;28;20076;-78
2021/08/22 03:15:21;;;;;;;12.95;7.43;;;;;;;15.87;69.56;99434.59;5071512;28;20047;-77
2021/08/22 03:17:46;;;;;;;15.05;7.70;;;;;;;16.00;69.73;99457.78;5072255;28;20051;-76
2021/08/22 03:20:12;;;;;;;17.63;7.78;;;;;;;16.02;69.65;99450.69;5072407;28;20044;-78
2021/08/22 03:22:41;;;;;;;16.25;7.55;;;;;;;16.14;69.85;99452.88;5055826;28;20135;-77
2021/08/22 03:25:08;;;;;;;11.40;6.55;;;;;;;16.09;69.89;99432.06;5040129;28;20036;-78
2021/08/22 03:27:34;;;;;;;16.13;7.43;;;;;;;16.19;69.51;99427.31;5055916;28;20068;-76
2021/08/22 03:29:59;;;;;;;12.52;7.57;;;;;;;16.40;69.17;99451.03;5072460;28;20079;-78
2021/08/22 03:32:25;;;;;;;16.70;8.02;;;;;;;16.46;69.36;99463.06;5071747;28;20068;-77
2021/08/22 03:34:51;;;;;;;12.45;8.27;;;;;;;16.44;69.10;99443.88;5055202;28;20036;-76
2021/08/22 03:37:17;;;;;;;14.63;7.88;;;;;;;16.55;69.33;99455.69;5073025;28;20510;-76
2021/08/22 03:39:43;;;;;;;18.23;7.68;;;;;;;16.63;69.28;99452.75;5073604;28;20081;-78
2021/08/22 03:42:09;;;;;;;17.02;8.15;;;;;;;16.60;68.70;99452.84;5073256;28;20045;-79
2021/08/22 03:44:34;;;;;;;16.45;7.82;;;;;;;16.72;68.99;99462.03;5055647;28;20036;-79
2021/08/22 03:47:00;;;;;;;14.50;7.65;;;;;;;16.78;68.88;99474.06;5074535;28;20064;-79
2021/08/22 03:49:26;;;;;;;19.17;9.60;;;;;;;16.78;69.11;99467.03;5073175;28;20037;-78
2021/08/22 03:51:54;;;;;;;21.02;9.60;;;;;;;16.64;68.80;99441.31;5084944;28;20036;-76
2021/08/22 03:54:20;;;;;;;19.98;9.82;;;;;;;16.96;68.92;99470.75;5050384;28;20044;-78
2021/08/22 03:56:46;;;;;;;19.05;8.73;;;;;;;17.21;68.93;99476.75;5057948;28;20048;-78
2021/08/22 03:59:12;;;;;;;14.88;7.80;;;;;;;17.39;68.78;99488.28;5075135;28;20067;-75
2021/08/22 04:01:41;;;;;;;12.98;7.40;;;;;;;17.07;68.48;99386.19;5055896;28;20051;-77
2021/08/22 04:04:17;;;;;;;13.48;6.90;;;;;;;17.28;67.89;99387.03;5059682;28;20094;-77
2021/08/22 04:06:52;;;;;;;14.32;6.60;;;;;;;17.58;67.45;99393.66;5058323;28;20116;-78
2021/08/22 04:09:20;;;;;;;8.00;5.45;;;;;;;18.17;67.16;99465.59;5076303;28;20051;-77
2021/08/22 04:11:50;;;;;;;8.02;5.25;;;;;;;18.37;66.59;99471.72;5075317;28;20043;-78
2021/08/22 04:14:16;;;;;;;7.47;4.90;;;;;;;18.45;65.89;99458.19;5076691;28;20042;-76
2021/08/22 04:16:42;;;;;;;9.52;5.05;;;;;;;18.70;65.76;99467.56;5075524;28;20127;-76
2021/08/22 04:19:07;;;;;;;7.72;5.00;;;;;;;18.89;64.91;99471.03;5074058;28;20123;-78
2021/08/22 04:21:34;;;;;;;7.45;5.00;;;;;;;19.02;64.55;99481.03;5074431;28;20040;-77
2021/08/22 04:24:00;;;;;;;8.77;4.82;;;;;;;19.09;63.92;99479.75;5075562;28;20094;-75
2021/08/22 04:26:26;;;;;;;5.78;4.50;;;;;;;19.16;63.80;99468.00;5074770;28;20072;-78
2021/08/22 04:28:52;;;;;;;6.93;4.30;;;;;;;19.30;63.45;99466.47;5073732;28;20076;-76
2021/08/22 04:31:17;;;;;;;8.27;4.50;;;;;;;19.57;62.80;99469.47;5074819;28;20044;-77
2021/08/22 04:33:43;;;;;;;7.32;4.47;;;;;;;19.64;62.17;99465.56;5075405;28;20036;-77
2021/08/22 04:36:09;;;;;;;8.20;4.10;;;;;;;19.94;61.65;99475.50;5075022;28;20044;-76
2021/08/22 04:38:35;;;;;;;7.55;4.35;;;;;;;19.95;60.91;99449.97;5073816;28;20040;-79
2021/08/22 04:41:01;;;;;;;6.97;4.30;;;;;;;20.38;60.73;99460.84;5074806;28;20040;-80
2021/08/22 04:43:27;;;;;;;5.97;4.35;;;;;;;20.65;59.88;99444.34;5073424;28;20049;-76
2021/08/22 04:45:53;;;;;;;5.53;4.15;;;;;;;21.04;59.33;99480.09;5073605;28;20048;-79
2021/08/22 04:48:22;;;;;;;9.93;7.13;;;;;;;21.15;58.98;99465.38;5074856;28;20127;-77
2021/08/22 04:50:50;;;;;;;16.52;10.50;;;;;;;21.31;58.09;99484.69;5073273;28;20029;-78
2021/08/22 04:53:16;;;;;;;8.15;5.57;;;;;;;21.26;57.36;99468.25;5055698;28;20633;-77
2021/08/22 04:55:42;;;;;;;9.68;7.07;;;;;;;21.25;57.30;99479.78;5074232;28;20044;-79
2021/08/22 04:58:07;;;;;;;6.10;5.05;;;;;;;21.05;57.12;99425.41;5055995;28;20068;-78
2021/08/22 05:00:33;;;;;;;8.13;5.15;;;;;;;21.49;56.31;99496.00;5073810;28;20468;-79
2021/08/22 05:03:00;;;;;;;5.45;4.40;;;;;;;21.50;55.95;99496.88;5073815;28;20113;-76
2021/08/22 05:05:26;;;;;;;6.10;4.45;;;;;;;21.47;56.36;99483.81;5056450;28;20565;-77
2021/08/22 05:07:55;;;;;;;6.20;4.68;;;;;;;21.52;55.90;99492.31;5072689;28;20044;-77
2021/08/22 05:10:21;;;;;;;4.65;3.70;;;;;;;21.52;55.94;99500.25;5074085;28;20036;-77
2021/08/22 05:12:47;;;;;;;6.20;4.50;;;;;;;21.40;55.70;99493.06;5074410;28;20496;-76
2021/08/22 05:15:12;;;;;;;5.63;4.30;;;;;;;21.44;55.51;99502.50;5038595;28;20036;-78
2021/08/22 05:17:38;;;;;;;4.63;4.18;;;;;;;21.41;55.22;99495.59;5073537;28;20044;-78
2021/08/22 05:20:05;;;;;;;6.93;4.22;;;;;;;21.48;55.54;99504.06;5072683;28;20466;-78
2021/08/22 05:22:41;;;;;;;7.38;4.35;;;;;;;21.40;54.94;99503.63;5056661;28;20036;-77
2021/08/22 05:25:07;;;;;;;8.02;4.43;;;;;;;21.02;55.64;99471.41;5039394;28;20086;-79
2021/08/22 05:27:44;;;;;;;7.32;4.43;;;;;;;21.14;54.76;99508.63;5073119;28;20105;-78
2021/08/22 05:30:22;;;;;;;7.63;4.28;;;;;;;20.26;55.87;99377.84;5042824;28;20052;-77
2021/08/22 05:32:48;;;;;;;6.00;4.18;;;;;;;20.69;55.59;99453.00;5040097;28;20113;-77
2021/08/22 05:35:14;;;;;;;6.65;3.92;;;;;;;20.83;55.53;99471.59;5056309;28;20048;-76
2021/08/22 05:37:39;;;;;;;6.70;4.63;;;;;;;21.06;56.14;99517.03;5072472;28;20037;-76
2021/08/22 05:40:05;;;;;;;7.22;4.00;;;;;;;20.82;55.90;99508.69;5074062;28;20160;-78
2021/08/22 05:42:31;;;;;;;4.63;4.00;;;;;;;20.76;56.22;99526.59;5073667;28;20040;-79
2021/08/22 05:44:57;;;;;;;4.90;4.20;;;;;;;20.50;56.47;99508.66;5072845;28;20048;-76
2021/08/22 05:47:22;;;;;;;5.32;4.07;;;;;;;20.54;56.68;99532.16;5073127;28;20036;-77
2021/08/22 05:49:48;;;;;;;6.70;4.10;;;;;;;20.46;57.15;99531.75;5072760;28;20131;-77
2021/08/22 05:52:15;;;;;;;8.98;4.30;;;;;;;20.22;57.03;99502.22;5073780;28;20396;-78
2021/08/22 05:54:40;;;;;;;5.93;4.60;;;;;;;20.31;57.20;99528.16;5074001;28;20036;-77
2021/08/22 05:57:06;;;;;;;8.23;4.68;;;;;;;20.33;57.33;99521.00;5081427;28;20059;-76
2021/08/22 05:59:33;;;;;;;8.80;4.88;;;;;;;20.43;57.53;99537.19;5087026;28;20138;-80
2021/08/22 06:02:00;;;;;;;9.25;5.10;;;;;;;20.45;57.62;99524.75;5088557;28;20047;-77
2021/08/22 06:04:25;;;;;;;5.75;4.55;;;;;;;20.40;57.62;99542.66;5075637;28;20032;-77
2021/08/22 06:06:51;;;;;;;8.25;4.65;;;;;;;20.25;58.08;99546.97;5072360;28;20109;-76
2021/08/22 06:09:17;;;;;;;7.68;4.60;;;;;;;20.08;58.13;99548.72;5073235;28;20033;-75
2021/08/22 06:11:44;;;;;;;4.65;4.10;;;;;;;19.88;58.43;99535.69;5073387;28;20138;-75
2021/08/22 06:14:09;;;;;;;4.65;3.80;;;;;;;19.84;58.83;99551.66;5073065;28;20041;-77
2021/08/22 06:16:35;;;;;;;4.43;3.22;;;;;;;19.68;58.95;99545.47;5072966;28;20052;-77
2021/08/22 06:19:01;;;;;;;5.00;3.08;;;;;;;19.65;59.39;99549.09;5072029;28;20048;-76
2021/08/22 06:21:27;;;;;;;5.10;3.35;;;;;;;19.60;59.34;99556.41;5072408;28;20044;-78
2021/08/22 06:23:57;;;;;;;3.70;3.15;;;;;;;19.46;59.30;99541.25;5057379;28;20065;-78
2021/08/22 06:26:28;;;;;;;3.30;2.88;;;;;;;19.35;59.78;99538.28;5071297;28;20166;-79
2021/08/22 06:29:20;;;;;;;3.90;2.75;;;;;;;19.40;60.11;99552.13;5071303;28;20114;-77
2021/08/22 06:31:45;;;;;;;;;;;;;;;19.48;60.25;99560.50;5070965;28;20526;-78
2021/08/22 06:34:11;;;;;;;5.72;3.20;;;;;;;19.34;60.26;99524.25;5073281;28;19916;-79
2021/08/22 06:36:42;;;;;;;5.20;3.00;;;;;;;19.72;60.44;99566.34;5055216;28;20529;-76
2021/08/22 06:39:12;;;;;;;3.38;2.42;;;;;;;19.83;59.75;99568.44;5072982;28;20051;-77
2021/08/22 06:41:39;;;;;;;4.25;2.83;;;;;;;19.74;59.48;99542.53;5072185;28;20056;-80
2021/08/22 06:44:28;;;;;;;4.82;2.25;;;;;;;19.77;59.58;99568.72;5044623;28;20037;-76
2021/08/22 06:46:57;;;;;;;2.45;2.20;;;;;;;19.63;59.31;99568.59;5072357;28;20100;-78
2021/08/22 06:49:22;;;;;;;3.17;2.47;;;;;;;19.41;59.84;99546.78;5072907;28;20125;-76
2021/08/22 06:51:48;;;;;;;4.25;2.42;;;;;;;19.65;59.93;99577.28;5071846;28;20028;-77
2021/08/22 06:54:14;;;;;;;4.00;3.00;;;;;;;19.70;60.12;99570.84;5055428;28;20036;-78
2021/08/22 06:56:46;;;;;;;5.30;2.78;;;;;;;19.33;59.73;99483.00;5054296;28;20044;-79
2021/08/22 06:59:12;;;;;;;4.25;2.72;;;;;;;19.52;59.89;99517.22;5071272;28;20071;-77
2021/08/22 07:04:40;;;;;;;6.25;2.50;;;;;;;18.98;59.89;99461.00;5054194;28;20110;-80
2021/08/22 07:07:06;;;;;;;4.05;2.40;;;;;;;19.55;59.83;99551.34;5070560;28;20499;-80
2021/08/22 07:09:35;;;;;;;4.10;2.17;;;;;;;19.68;59.77;99569.22;5072373;28;20086;-80
2021/08/22 07:12:02;;;;;;;4.20;2.20;;;;;;;18.88;59.77;99423.66;5071441;28;20056;-79
2021/08/22 07:14:34;;;;;;;3.05;2.25;;;;;;;19.91;59.63;99577.78;5054898;28;20040;-81
2021/08/22 07:17:06;;;;;;;3.42;2.47;;;;;;;19.94;59.69;99580.28;5071781;28;20036;-79
2021/08/22 07:19:38;;;;;;;3.30;2.00;;;;;;;19.81;59.13;99559.72;5070708;28;20048;-76
2021/08/22 07:22:27;;;;;;;;;;;;;;;20.00;59.00;99583.44;5034104;28;20040;-77
2021/08/22 07:24:54;;;;;;;2.92;2.38;;;;;;;18.93;58.58;99443.59;5054259;28;19923;-76
2021/08/22 07:27:26;;;;;;;2.15;1.90;;;;;;;18.77;59.16;99447.91;5069979;28;20487;-77
2021/08/22 07:29:58;;;;;;;2.10;1.73;;;;;;;18.95;58.98;99510.31;5054087;28;20518;-78
2021/08/22 07:32:24;;;;;;;3.65;2.40;;;;;;;18.77;59.65;99482.16;5037260;28;20070;-79
2021/08/22 07:35:00;;;;;;;2.47;1.83;;;;;;;19.12;59.43;99537.63;5071701;28;20032;-79
2021/08/22 07:37:30;;;;;;;2.22;1.80;;;;;;;18.74;58.78;99450.69;5036580;28;20508;-80
2021/08/22 07:40:06;;;;;;;1.80;1.65;;;;;;;18.92;58.99;99462.97;5053471;28;20068;-79
2021/08/22 07:42:40;;;;;;;3.80;2.08;;;;;;;19.98;58.53;99611.72;5070846;28;20492;-78
2021/08/22 07:45:22;;;;;;;3.55;1.63;;;;;;;19.93;58.67;99591.75;5038488;28;20047;-79
2021/08/22 07:47:56;;;;;;;5.32;1.85;;;;;;;19.61;57.48;99507.97;5038553;28;20040;-76
2021/08/22 07:50:25;;;;;;;4.45;2.00;;;;;;;20.50;56.97;99614.34;5072001;28;20124;-79
2021/08/22 07:52:54;;;;;;;2.90;1.80;;;;;;;20.51;56.63;99579.06;5054319;28;20041;-79
2021/08/22 07:55:23;;;;;;;3.22;1.73;;;;;;;20.70;56.40;99574.47;5054532;28;20071;-78
2021/08/22 07:57:50;;;;;;;3.80;2.30;;;;;;;20.39;55.93;99470.47;5072238;28;20059;-76
2021/08/22 08:00:30;;;;;;;3.33;1.60;;;;;;;21.35;54.54;99613.25;5059796;28;20052;-78
2021/08/22 08:03:37;;;;;;;2.85;1.75;;;;;;;21.11;54.51;99528.19;5019145;28;20105;-77
2021/08/22 08:06:08;;;;;;;;;;;;;;;22.27;53.35;99618.56;5082594;28;20036;-79
2021/08/22 08:08:35;;;;;;;1.80;1.58;;;;;;;22.92;52.72;99619.03;5074850;28;19916;-80
2021/08/22 08:11:11;;;;;;;5.00;2.50;;;;;;;22.76;51.24;99595.28;5055433;28;20472;-76
2021/08/22 08:13:38;;;;;;;4.10;1.90;;;;;;;22.51;50.56;99579.13;5053107;28;20101;-79
2021/08/22 08:16:09;;;;;;;2.33;1.52;;;;;;;22.53;50.21;99573.72;5037155;28;20109;-78
2021/08/22 08:18:36;;;;;;;4.20;1.80;;;;;;;22.82;49.94;99632.91;5053569;28;20071;-79
2021/08/22 08:21:06;;;;;;;3.92;1.60;;;;;;;23.26;49.99;99628.38;5036483;28;20603;-78
2021/08/22 08:23:34;;;;;;;3.50;1.70;;;;;;;23.17;49.04;99574.06;5069733;28;20045;-78
2021/08/22 08:26:00;;;;;;;3.50;1.80;;;;;;;23.57;48.31;99545.88;5071126;28;20036;-77
2021/08/22 08:28:29;;;;;;;2.30;1.50;;;;;;;25.96;47.89;99624.78;5070145;28;20039;-76
2021/08/22 08:30:54;;;;;;;3.15;1.73;;;;;;;28.36;43.81;99616.22;5069433;28;20045;-77
2021/08/22 08:33:20;;;;;;;1.98;1.40;;;;;;;30.51;39.89;99597.78;5070040;28;20047;-80
2021/08/22 08:35:46;;;;;;;2.28;1.20;;;;;;;31.08;36.20;99589.59;5069998;28;20134;-80
2021/08/22 08:38:15;;;;;;;2.85;1.40;;;;;;;30.42;34.95;99583.41;5037945;28;20041;-79
2021/08/22 08:40:41;;;;;;;1.88;1.42;;;;;;;30.98;34.89;99594.16;5070005;28;20397;-79
2021/08/22 08:43:10;;;;;;;2.10;1.50;;;;;;;31.19;33.41;99599.31;5070151;28;20040;-80
2021/08/22 08:45:46;;;;;;;2.55;1.58;;;;;;;31.01;32.95;99614.50;5053638;28;20052;-79
2021/08/22 08:48:24;;;;;;;4.28;1.60;;;;;;;30.36;33.48;99624.25;5071581;28;20086;-78
2021/08/22 08:50:59;;;;;;;;;;;;;;;30.56;32.96;99626.91;5074402;28;20036;-79
2021/08/22 08:53:41;;;;;;;1.88;1.33;;;;;;;29.60;34.07;99621.38;5074388;28;19928;-80
2021/08/22 08:56:15;;;;;;;2.67;1.50;;;;;;;29.73;33.46;99613.03;5061696;28;20086;-77
2021/08/22 08:58:42;;;;;;;2.78;1.45;;;;;;;30.04;32.76;99626.31;5079716;28;20121;-75
2021/08/22 09:01:16;;;;;;;2.20;1.45;;;;;;;29.90;32.21;99618.69;5079347;28;20127;-78
2021/08/22 09:04:12;;;;;;;2.42;1.50;;;;;;;29.31;32.06;99635.59;5077623;28;20059;-76
2021/08/22 09:07:23;;;;;;;4.40;1.42;;;;;;;28.26;33.30;99648.28;5042926;28;20040;-76
2021/08/22 09:10:30;;;;;;;1.52;1.33;;;;;;;27.26;34.39;99657.38;5075535;28;20037;-77
2021/08/22 09:13:33;;;;;;;2.22;1.40;;;;;;;26.82;35.05;99659.13;5074256;28;20147;-78
2021/08/22 09:16:40;;;;;;;2.72;1.60;;;;;;;26.14;35.83;99665.22;5074091;28;20072;-78
2021/08/22 09:19:48;;;;;;;3.25;1.70;;;;;;;25.76;37.28;99676.94;5074601;28;20044;-78
2021/08/22 09:22:43;;;;;;;3.05;1.50;;;;;;;25.48;37.57;99682.50;5053651;28;20616;-79
2021/08/22 09:25:36;;;;;;;1.30;1.20;;;;;;;25.14;38.22;99681.41;5051392;28;20135;-79
2021/08/22 09:28:45;;;;;;;2.75;1.45;;;;;;;25.04;38.45;99681.22;5072632;28;20121;-77
2021/08/22 09:31:33;;;;;;;1.98;1.73;;;;;;;24.99;38.66;99683.34;5070940;28;20143;-77
2021/08/22 09:34:27;;;;;;;2.28;1.30;;;;;;;24.75;38.64;99684.94;5073478;28;20039;-77
2021/08/22 09:37:11;;;;;;;2.55;1.42;;;;;;;24.42;39.09;99696.09;5039433;28;20044;-78
2021/08/22 09:40:22;;;;;;;2.42;1.40;;;;;;;24.08;39.45;99701.88;5072300;28;20036;-77
2021/08/22 09:43:17;;;;;;;3.13;1.50;;;;;;;23.86;39.87;99694.47;5039697;28;20048;-77
2021/08/22 09:46:23;;;;;;;1.50;1.40;;;;;;;23.89;39.63;99704.91;5039930;28;20063;-77
2021/08/22 09:49:28;;;;;;;1.75;1.20;;;;;;;23.64;39.85;99703.84;5073668;28;20051;-76
2021/08/22 09:52:28;;;;;;;2.50;1.50;;;;;;;23.39;40.52;99708.09;5055620;28;20131;-79
2021/08/22 09:55:36;;;;;;;4.00;1.63;;;;;;;23.44;40.50;99710.44;5056549;28;20106;-76
2021/08/22 09:58:40;;;;;;;2.38;1.35;;;;;;;23.51;40.40;99718.84;5071812;28;20040;-77
2021/08/22 10:01:41;;;;;;;1.88;1.50;;;;;;;23.45;40.51;99718.31;5039049;28;20051;-77
2021/08/22 10:04:15;;;;;;;2.25;1.55;;;;;;;23.32;40.70;99728.00;5072002;28;20051;-79
2021/08/22 10:07:03;;;;;;;2.00;1.50;;;;;;;23.48;40.97;99727.03;5039053;28;20048;-79
2021/08/22 10:10:13;;;;;;;3.35;1.70;;;;;;;23.94;40.09;99728.50;5057462;28;20036;-77
2021/08/22 10:12:43;;;;;;;2.28;1.83;;;;;;;23.20;39.98;99641.19;5063983;28;20040;-75
2021/08/22 10:15:10;;;;;;;4.15;1.80;;;;;;;23.10;40.58;99662.97;5041644;28;20040;-77
2021/08/22 10:17:44;;;;;;;3.10;1.67;;;;;;;25.15;41.00;99729.19;5055056;28;20095;-78
2021/08/22 10:20:10;;;;;;;2.97;1.42;;;;;;;27.29;37.13;99673.16;5054657;28;20043;-79
2021/08/22 10:22:36;;;;;;;2.50;1.40;;;;;;;28.64;34.78;99710.16;5071381;28;20055;-80
2021/08/22 10:25:19;;;;;;;1.80;1.48;;;;;;;28.66;33.73;99715.38;5054108;28;20412;-77
2021/08/22 10:28:03;;;;;;;1.40;1.30;;;;;;;27.89;33.80;99718.22;5070154;28;20076;-79
2021/08/22 10:30:29;;;;;;;2.78;1.70;;;;;;;27.31;34.31;99723.78;5053859;28;20044;-77
2021/08/22 10:33:04;;;;;;;1.92;1.45;;;;;;;27.26;34.37;99729.47;5070382;28;20058;-76
2021/08/22 10:35:33;;;;;;;3.28;1.27;;;;;;;28.76;33.19;99712.78;5053306;28;20058;-78
2021/08/22 10:38:23;;;;;;;1.65;1.33;;;;;;;29.83;31.76;99724.81;5069647;28;20496;-78
2021/08/22 10:40:49;;;;;;;2.78;1.30;;;;;;;30.06;30.01;99703.94;5053975;28;20121;-78
2021/08/22 10:43:22;;;;;;;4.50;1.40;;;;;;;29.43;30.31;99687.25;5072312;28;20063;-80
2021/08/22 10:45:50;;;;;;;4.43;1.67;;;;;;;28.76;31.24;99702.94;5071631;28;20051;-77
2021/08/22 10:48:21;;;;;;;2.30;1.95;;;;;;;28.65;31.38;99721.69;5071644;28;20221;-78
2021/08/22 10:50:59;;;;;;;4.18;1.73;;;;;;;28.35;31.46;99726.88;5070192;28;20037;-78
2021/08/22 10:53:39;;;;;;;4.35;1.63;;;;;;;27.60;31.93;99661.81;5072058;28;20063;-78
2021/08/22 10:56:23;;;;;;;2.80;1.75;;;;;;;27.46;32.42;99727.03;5074485;28;20047;-80
2021/08/22 10:58:58;;;;;;;2.15;1.60;;;;;;;26.69;33.56;99702.78;5071581;28;20135;-79
2021/08/22 11:01:27;;;;;;;3.72;1.60;;;;;;;26.65;33.42;99717.31;5070541;28;20117;-79
2021/08/22 11:04:17;;;;;;;2.95;1.50;;;;;;;26.58;33.70;99721.44;5052066;28;20517;-79
2021/08/22 11:07:03;;;;;;;3.08;1.40;;;;;;;26.46;33.87;99729.41;5052853;28;20040;-78
2021/08/22 11:09:45;;;;;;;6.07;1.50;;;;;;;26.37;34.16;99739.94;5036754;28;20049;-78
2021/08/22 11:12:22;;;;;;;2.17;1.48;;;;;;;26.42;34.32;99719.94;5072737;28;20033;-79
2021/08/22 11:14:48;;;;;;;3.63;1.60;;;;;;;25.82;34.21;99660.50;5055151;28;20570;-78
2021/08/22 11:17:14;;;;;;;1.50;1.33;;;;;;;26.08;34.71;99733.16;5071022;28;20479;-79
2021/08/22 11:19:39;;;;;;;3.92;1.95;;;;;;;25.92;34.74;99729.94;5072427;28;20048;-78
2021/08/22 11:22:27;;;;;;;5.13;1.77;;;;;;;25.71;34.57;99706.56;5070605;28;20524;-77
2021/08/22 11:25:00;;;;;;;2.28;1.58;;;;;;;25.35;35.03;99668.31;5055092;28;20036;-78
2021/08/22 11:27:31;;;;;;;3.30;1.42;;;;;;;25.56;35.16;99722.72;5057841;28;20055;-78
2021/08/22 11:30:15;;;;;;;1.70;1.38;;;;;;;25.56;34.75;99719.22;5071672;28;20052;-79
2021/08/22 11:33:02;;;;;;;4.00;1.50;;;;;;;25.73;34.78;99735.75;5057174;28;20047;-75
2021/08/22 11:35:40;;;;;;;2.67;1.25;;;;;;;25.45;34.82;99666.72;5054616;28;20064;-77
2021/08/22 11:38:08;;;;;;;3.65;1.60;;;;;;;25.28;34.35;99628.00;5037292;28;20040;-80
2021/08/22 11:40:36;;;;;;;2.97;1.42;;;;;;;24.99;34.08;99608.81;5053246;28;20044;-79
2021/08/22 11:43:07;;;;;;;2.35;1.50;;;;;;;25.40;34.72;99709.63;5037576;28;20032;-78
2021/08/22 11:45:37;;;;;;;2.45;1.48;;;;;;;25.32;34.70;99713.81;5053967;28;20067;-77
2021/08/22 11:48:05;;;;;;;2.78;1.25;;;;;;;25.21;34.72;99714.56;5053314;28;20047;-79
2021/08/22 11:50:46;;;;;;;;;;;;;;;;;;;;;
2021/08/22 11:53:16;;;;;;;;;;;;;;;24.98;35.10;99732.19;5070290;28;20063;-79
2021/08/22 11:55:52;;;;;;;3.28;1.40;;;;;;;24.77;35.26;99712.28;5036880;28;19916;-78
2021/08/22 11:58:23;;;;;;;6.10;1.33;;;;;;;23.97;35.74;99592.78;5036382;28;20051;-77